Time;durP1;ratioP1;P1;durP2;ratioP2;P2;SDS_P1;SDS_P2;PMS_P1;PMS_P2;Temp;Humidity;BMP_temperature;BMP_pressure;BME280_temperature;BME280_humidity;BME280_pressure;Samples;Min_cycle;Max_cycle;Signal;HPM_P1;HPM_P2
2022/12/14 00:09:21;;;;;;;;;;;;;;;-2.72;80.53;100934.47;20705677;28;19969;-67
2022/12/14 00:19:42;;;;;;;;;;;;;;;-2.81;80.58;100924.13;20709242;28;20456;-67
2022/12/14 00:30:13;;;;;;;;;;;;;;;-2.79;80.44;100917.41;20707138;28;19949;-67
2022/12/14 00:40:34;;;;;;;;;;;;;;;-2.78;80.65;100916.63;20695023;28;20381;-67
2022/12/14 00:50:55;;;;;;;;;;;;;;;-2.82;81.01;100903.00;20725020;28;19933;-67
2022/12/14 01:01:17;;;;;;;;;;;;;;;-2.88;80.44;100913.00;20708673;28;19925;-66
2022/12/14 01:11:38;;;;;;;;;;;;;;;-2.95;80.30;100900.16;20706114;28;20013;-67
2022/12/14 01:22:00;;;;;;;;;;;;;;;-3.03;80.19;100899.97;20705507;28;20302;-67
2022/12/14 01:32:22;;;;;;;;;;;;;;;-3.07;80.08;100881.31;20708759;28;19980;-66
2022/12/14 01:42:43;;;;;;;;;;;;;;;-3.18;79.45;100877.66;20699742;28;19960;-66
2022/12/14 01:53:07;;;;;;;;;;;;;;;-3.26;79.46;100873.22;20698019;28;19969;-66
2022/12/14 02:03:30;;;;;;;;;;;;;;;-3.21;79.71;100864.06;20704294;28;19978;-66
2022/12/14 02:13:53;;;;;;;;;;;;;;;-3.29;78.96;100843.66;20688613;28;20446;-66
2022/12/14 02:24:14;;;;;;;;;;;;;;;-3.31;79.46;100825.03;20701588;28;19933;-65
2022/12/14 02:34:54;;;;;;;;;;;;;;;-3.39;79.75;100831.56;20711883;22;19941;-75
2022/12/14 02:45:38;;;;;;;;;;;;;;;-3.38;79.60;100817.25;20693346;28;20018;-74
2022/12/14 02:56:02;;;;;;;;;;;;;;;-3.38;79.34;100810.53;20638091;28;19929;-75
2022/12/14 03:06:26;;;;;;;;;;;;;;;-3.43;78.74;100812.09;20637168;28;20677;-75
2022/12/14 03:16:49;;;;;;;;;;;;;;;-3.46;79.08;100793.47;20626281;28;19925;-75
2022/12/14 03:27:29;;;;;;;;;;;;;;;-3.50;79.09;100792.50;20616612;28;20415;-75
2022/12/14 03:37:55;;;;;;;;;;;;;;;-3.62;79.19;100786.28;20615465;28;19926;-73
2022/12/14 03:48:29;;;;;;;;;;;;;;;-3.66;79.68;100777.78;20629881;28;19996;-73
2022/12/14 03:59:01;;;;;;;;;;;;;;;-3.79;78.42;100768.16;20619134;28;19926;-73
2022/12/14 04:09:34;;;;;;;;;;;;;;;-3.88;78.81;100765.41;20618875;28;19985;-74
2022/12/14 04:20:18;;;;;;;;;;;;;;;-4.00;77.87;100754.97;20616390;28;19930;-73
2022/12/14 04:30:40;;;;;;;;;;;;;;;-4.04;78.72;100740.56;20638751;28;19926;-75
2022/12/14 04:41:04;;;;;;;;;;;;;;;-4.10;77.61;100736.19;20633643;28;19930;-73
2022/12/14 04:51:30;;;;;;;;;;;;;;;-4.17;77.78;100736.84;20612118;28;19926;-73
2022/12/14 05:01:57;;;;;;;;;;;;;;;-4.28;77.37;100737.34;20618347;28;19930;-73
2022/12/14 05:12:22;;;;;;;;;;;;;;;-4.50;78.17;100733.38;20619578;28;19961;-73
2022/12/14 05:22:43;;;;;;;;;;;;;;;-4.48;78.17;100725.84;20613145;28;19933;-73
2022/12/14 05:33:05;;;;;;;;;;;;;;;-4.41;78.34;100715.97;20611464;28;20324;-74
2022/12/14 05:43:26;;;;;;;;;;;;;;;-4.41;78.53;100697.44;20607654;28;19977;-73
2022/12/14 05:53:48;;;;;;;;;;;;;;;-4.46;78.07;100682.19;20608079;28;19926;-73
2022/12/14 06:04:10;;;;;;;;;;;;;;;-4.47;78.43;100687.19;20626885;28;20406;-72
2022/12/14 06:14:32;;;;;;;;;;;;;;;-4.58;77.78;100669.22;20626018;28;19926;-73
2022/12/14 06:24:53;;;;;;;;;;;;;;;-4.64;77.53;100675.78;20627183;28;19968;-73
2022/12/14 06:35:14;;;;;;;;;;;;;;;-4.68;78.30;100674.84;20615330;28;19930;-74
2022/12/14 06:45:37;;;;;;;;;;;;;;;-4.65;78.54;100672.38;20634754;28;20336;-74
2022/12/14 06:56:06;;;;;;;;;;;;;;;-4.58;78.15;100665.84;20604625;28;19984;-74
2022/12/14 07:06:30;;;;;;;;;;;;;;;-4.65;78.20;100657.25;20624715;28;19988;-74
2022/12/14 07:16:51;;;;;;;;;;;;;;;-4.62;78.56;100656.47;20607003;28;19964;-75
2022/12/14 07:27:16;;;;;;;;;;;;;;;-4.64;78.84;100648.00;20617554;28;19926;-74
2022/12/14 07:37:37;;;;;;;;;;;;;;;-4.66;78.17;100645.47;20624168;28;19930;-74
2022/12/14 07:47:58;;;;;;;;;;;;;;;-4.74;78.04;100638.50;20606304;28;19933;-73
2022/12/14 07:58:20;;;;;;;;;;;;;;;-4.74;76.51;100635.97;20619924;28;19984;-75
2022/12/14 08:08:41;;;;;;;;;;;;;;;-4.66;77.50;100619.38;20637316;28;19933;-72
2022/12/14 08:19:03;;;;;;;;;;;;;;;-4.70;76.94;100635.22;20636139;28;19929;-74
2022/12/14 08:29:24;;;;;;;;;;;;;;;-4.66;78.40;100630.31;20611027;28;20444;-75
2022/12/14 08:39:45;;;;;;;;;;;;;;;-4.54;78.13;100634.84;20625474;28;19996;-74
2022/12/14 08:50:09;;;;;;;;;;;;;;;-4.45;78.12;100630.03;20647892;28;19926;-74
2022/12/14 09:00:31;;;;;;;;;;;;;;;-4.42;78.92;100614.97;20721065;22;20339;-68
2022/12/14 09:10:53;;;;;;;;;;;;;;;-4.28;79.66;100606.06;20724308;28;19936;-68
2022/12/14 09:21:14;;;;;;;;;;;;;;;-4.13;79.84;100598.88;20717994;28;19940;-67
2022/12/14 09:31:36;;;;;;;;;;;;;;;-3.95;79.55;100604.38;20720933;28;19995;-67
2022/12/14 09:42:10;;;;;;;;;;;;;;;-3.80;78.26;100599.69;20735571;28;19931;-67
2022/12/14 09:52:40;;;;;;;;;;;;;;;-3.62;78.49;100592.53;20723110;28;19933;-67
2022/12/14 10:03:20;;;;;;;;;;;;;;;-3.50;77.92;100570.03;20726747;28;19968;-67
2022/12/14 10:13:48;;;;;;;;;;;;;;;-3.35;77.35;100545.09;20724319;28;20058;-69
2022/12/14 10:24:16;;;;;;;;;;;;;;;-3.19;78.37;100549.63;20719958;28;19997;-69
2022/12/14 10:34:39;;;;;;;;;;;;;;;-3.08;77.95;100539.75;20718740;28;19929;-70
2022/12/14 10:45:12;;;;;;;;;;;;;;;-2.93;79.04;100547.63;20716792;28;19925;-69
2022/12/14 10:55:57;;;;;;;;;;;;;;;-2.83;78.01;100541.06;20720092;28;20039;-70
2022/12/14 11:06:19;;;;;;;;;;;;;;;-2.70;78.04;100522.75;20705879;28;20343;-69
2022/12/14 11:16:40;;;;;;;;;;;;;;;-2.49;78.90;100513.00;20711060;28;19976;-69
2022/12/14 11:27:02;;;;;;;;;;;;;;;-2.37;78.96;100503.94;20715253;28;20238;-69
2022/12/14 11:37:24;;;;;;;;;;;;;;;-2.15;79.49;100495.84;20713142;28;19930;-69
2022/12/14 11:48:06;;;;;;;;;;;;;;;-2.02;78.69;100501.94;20715051;28;19933;-69
2022/12/14 11:58:30;;;;;;;;;;;;;;;-1.71;78.38;100493.94;20728872;28;19926;-66
2022/12/14 12:09:02;;;;;;;;;;;;;;;-1.60;78.37;100487.34;20718158;28;20012;-67
2022/12/14 12:19:27;;;;;;;;;;;;;;;-1.49;77.78;100495.09;20716919;28;19933;-70
2022/12/14 12:29:48;;;;;;;;;;;;;;;-1.39;78.26;100480.00;20708028;28;19930;-69
2022/12/14 12:40:19;;;;;;;;;;;;;;;-1.17;77.51;100479.41;20722203;28;19950;-68
2022/12/14 12:50:48;;;;;;;;;;;;;;;-0.99;77.33;100468.63;20722646;28;19929;-65
2022/12/14 13:01:36;;;;;;;;;;;;;;;-0.86;77.43;100465.34;20723368;28;19936;-66
2022/12/14 13:11:59;;;;;;;;;;;;;;;-0.83;76.82;100452.69;20723017;28;19979;-66
2022/12/14 13:22:28;;;;;;;;;;;;;;;-0.71;75.24;100436.69;20722693;28;20432;-59
2022/12/14 13:32:49;;;;;;;;;;;;;;;-0.78;75.85;100450.19;20719150;28;20033;-68
2022/12/14 13:43:34;;;;;;;;;;;;;;;-0.85;76.67;100448.44;20723346;28;19926;-68
2022/12/14 13:53:58;;;;;;;;;;;;;;;-0.79;77.12;100445.94;20720940;28;19948;-68
2022/12/14 14:04:21;;;;;;;;;;;;;;;-0.80;77.27;100439.16;20727040;28;20328;-65
2022/12/14 14:14:46;;;;;;;;;;;;;;;-0.80;76.38;100451.84;20721144;28;19929;-72
2022/12/14 14:25:26;;;;;;;;;;;;;;;-0.80;76.00;100454.38;20705496;28;20796;-68
2022/12/14 14:35:47;;;;;;;;;;;;;;;-0.80;76.41;100459.47;20734935;28;19936;-68
2022/12/14 14:46:10;;;;;;;;;;;;;;;-0.84;76.09;100462.84;20720789;28;20005;-69
2022/12/14 14:56:37;;;;;;;;;;;;;;;-0.91;77.53;100455.97;20721932;28;20025;-69
2022/12/14 15:07:02;;;;;;;;;;;;;;;-0.96;78.30;100455.94;20736518;22;19960;-67
2022/12/14 15:17:24;;;;;;;;;;;;;;;-1.11;78.34;100458.31;20749498;28;19925;-67
2022/12/14 15:27:45;;;;;;;;;;;;;;;-1.21;78.50;100477.66;20752524;28;20435;-67
2022/12/14 15:38:13;;;;;;;;;;;;;;;-1.27;77.79;100476.75;20775457;28;19913;-66
2022/12/14 15:48:35;;;;;;;;;;;;;;;-1.36;78.45;100487.66;20762327;28;20125;-67
2022/12/14 15:58:57;;;;;;;;;;;;;;;-1.48;78.00;100492.56;20720273;28;19967;-67
2022/12/14 16:09:27;;;;;;;;;;;;;;;-1.54;78.94;100477.25;20768781;28;19979;-67
2022/12/14 16:20:15;;;;;;;;;;;;;;;-1.63;78.69;100484.75;20743028;28;20380;-66
2022/12/14 16:30:36;;;;;;;;;;;;;;;-1.73;79.40;100480.41;20736873;28;19972;-66
2022/12/14 16:40:59;;;;;;;;;;;;;;;-1.79;79.20;100490.44;20734187;28;19975;-66
2022/12/14 16:51:25;;;;;;;;;;;;;;;-1.89;79.60;100488.63;20731032;28;19925;-66
2022/12/14 17:02:19;;;;;;;;;;;;;;;-1.96;79.49;100489.38;20728183;28;19926;-65
2022/12/14 17:12:42;;;;;;;;;;;;;;;-2.08;80.03;100482.44;20722369;28;19925;-66
2022/12/14 17:23:06;;;;;;;;;;;;;;;-2.16;80.26;100496.66;20721509;28;19929;-65
2022/12/14 17:33:28;;;;;;;;;;;;;;;-2.19;80.24;100493.22;20726725;28;19933;-65
2022/12/14 17:43:50;;;;;;;;;;;;;;;-2.16;80.36;100483.13;20731086;28;19991;-64
2022/12/14 17:54:18;;;;;;;;;;;;;;;-2.19;80.25;100498.28;20727280;28;20319;-64
2022/12/14 18:04:39;;;;;;;;;;;;;;;-2.26;80.05;100501.56;20715238;28;20349;-62
2022/12/14 18:15:01;;;;;;;;;;;;;;;-2.35;80.27;100494.69;20709614;28;19925;-62
2022/12/14 18:25:31;;;;;;;;;;;;;;;-2.42;80.28;100515.66;20719038;28;19980;-63
2022/12/14 18:35:53;;;;;;;;;;;;;;;-2.46;80.45;100526.56;20723813;28;19930;-62
2022/12/14 18:46:15;;;;;;;;;;;;;;;-2.55;80.59;100512.91;20724384;28;19933;-62
2022/12/14 18:56:39;;;;;;;;;;;;;;;-2.67;79.93;100523.66;20719952;28;19972;-62
2022/12/14 19:07:00;;;;;;;;;;;;;;;-2.70;80.94;100532.88;20736093;28;19987;-62
2022/12/14 19:17:22;;;;;;;;;;;;;;;-2.81;80.88;100539.41;20722886;28;19933;-62
2022/12/14 19:27:44;;;;;;;;;;;;;;;-2.83;80.61;100543.59;20780068;28;20804;-62
2022/12/14 19:38:27;;;;;;;;;;;;;;;-3.13;81.20;100519.41;20724284;28;19969;-62
2022/12/14 19:48:48;;;;;;;;;;;;;;;-3.18;80.70;100515.97;20743823;28;19930;-62
2022/12/14 19:59:10;;;;;;;;;;;;;;;-3.25;80.16;100511.59;20757030;28;20359;-62
2022/12/14 20:09:31;;;;;;;;;;;;;;;-3.38;80.31;100534.94;20740791;28;19925;-62
2022/12/14 20:19:53;;;;;;;;;;;;;;;-3.45;80.90;100553.31;20738354;28;19929;-62
2022/12/14 20:30:14;;;;;;;;;;;;;;;-3.44;80.40;100552.50;20737665;28;19936;-61
2022/12/14 20:40:36;;;;;;;;;;;;;;;-3.57;80.50;100548.00;20727867;28;19930;-61
2022/12/14 20:51:00;;;;;;;;;;;;;;;-3.58;80.84;100569.03;20735730;28;19933;-61
2022/12/14 21:01:22;;;;;;;;;;;;;;;-3.60;80.31;100554.66;20731380;28;20365;-61
2022/12/14 21:22:26;;;;;;;;;;;;;;;-3.54;80.22;100564.91;20808200;28;19933;-65
2022/12/14 21:32:47;;;;;;;;;;;;;;;-3.52;80.12;100584.34;20803892;28;20136;-65
2022/12/14 21:43:11;;;;;;;;;;;;;;;-3.61;80.46;100594.25;20789800;28;19968;-64
2022/12/14 21:53:33;;;;;;;;;;;;;;;-3.69;80.40;100583.13;20790608;28;20305;-65
2022/12/14 22:03:56;;;;;;;;;;;;;;;-3.69;80.13;100595.75;20810206;28;19933;-64
2022/12/14 22:14:18;;;;;;;;;;;;;;;-3.71;81.10;100589.81;20805346;28;19968;-65
2022/12/14 22:24:40;;;;;;;;;;;;;;;-3.67;80.31;100585.66;20777634;28;19967;-65
2022/12/14 22:35:01;;;;;;;;;;;;;;;-3.55;80.16;100613.78;20800268;28;20388;-64
2022/12/14 22:45:23;;;;;;;;;;;;;;;-3.47;80.28;100615.63;20797519;28;19929;-65
2022/12/14 22:55:45;;;;;;;;;;;;;;;-3.45;80.13;100613.13;20799375;28;19929;-64
2022/12/14 23:06:14;;;;;;;;;;;;;;;-3.47;80.05;100590.34;20795929;28;20407;-65
